sensor_id;sensor_type;location;lat;lon;timestamp;P1;durP1;ratioP1;P2;durP2;ratioP2
7158;SDS011;63175;52.374;13.132;2023-04-01T00:01:11;0.77;;;0.70;;
7158;SDS011;63175;52.374;13.132;2023-04-01T00:03:39;0.90;;;0.90;;
7158;SDS011;63175;52.374;13.132;2023-04-01T00:06:08;0.70;;;0.70;;
7158;SDS011;63175;52.374;13.132;2023-04-01T00:08:38;1.03;;;0.93;;
7158;SDS011;63175;52.374;13.132;2023-04-01T00:11:05;1.20;;;0.90;;
7158;SDS011;63175;52.374;13.132;2023-04-01T00:13:32;1.13;;;0.80;;
7158;SDS011;63175;52.374;13.132;2023-04-01T00:15:59;0.70;;;0.70;;
7158;SDS011;63175;52.374;13.132;2023-04-01T00:18:28;1.53;;;0.70;;
7158;SDS011;63175;52.374;13.132;2023-04-01T00:20:54;1.40;;;0.73;;
7158;SDS011;63175;52.374;13.132;2023-04-01T00:23:23;1.13;;;0.80;;
7158;SDS011;63175;52.374;13.132;2023-04-01T00:25:50;1.00;;;0.87;;
7158;SDS011;63175;52.374;13.132;2023-04-01T00:28:17;1.13;;;0.97;;
7158;SDS011;63175;52.374;13.132;2023-04-01T00:30:45;3.17;;;0.80;;
7158;SDS011;63175;52.374;13.132;2023-04-01T00:33:12;0.80;;;0.80;;
7158;SDS011;63175;52.374;13.132;2023-04-01T00:35:39;1.00;;;0.60;;
7158;SDS011;63175;52.374;13.132;2023-04-01T00:38:06;0.83;;;0.83;;
7158;SDS011;63175;52.374;13.132;2023-04-01T00:40:36;0.97;;;0.87;;
7158;SDS011;63175;52.374;13.132;2023-04-01T00:43:08;0.70;;;0.70;;
7158;SDS011;63175;52.374;13.132;2023-04-01T00:45:38;1.53;;;0.77;;
7158;SDS011;63175;52.374;13.132;2023-04-01T00:48:07;1.13;;;0.90;;
7158;SDS011;63175;52.374;13.132;2023-04-01T00:50:36;0.77;;;0.77;;
7158;SDS011;63175;52.374;13.132;2023-04-01T00:53:05;2.13;;;1.00;;
7158;SDS011;63175;52.374;13.132;2023-04-01T00:55:36;0.70;;;0.70;;
7158;SDS011;63175;52.374;13.132;2023-04-01T00:58:09;0.60;;;0.60;;
7158;SDS011;63175;52.374;13.132;2023-04-01T01:00:40;1.27;;;0.90;;
7158;SDS011;63175;52.374;13.132;2023-04-01T01:03:08;0.80;;;0.80;;
7158;SDS011;63175;52.374;13.132;2023-04-01T01:05:38;0.73;;;0.60;;
7158;SDS011;63175;52.374;13.132;2023-04-01T01:08:23;0.70;;;0.70;;
7158;SDS011;63175;52.374;13.132;2023-04-01T01:11:02;1.40;;;0.70;;
7158;SDS011;63175;52.374;13.132;2023-04-01T01:13:34;0.90;;;0.90;;
7158;SDS011;63175;52.374;13.132;2023-04-01T01:16:10;0.80;;;0.60;;
7158;SDS011;63175;52.374;13.132;2023-04-01T01:18:42;2.83;;;0.90;;
7158;SDS011;63175;52.374;13.132;2023-04-01T01:21:18;3.47;;;1.17;;
7158;SDS011;63175;52.374;13.132;2023-04-01T01:27:03;0.80;;;0.80;;
7158;SDS011;63175;52.374;13.132;2023-04-01T01:32:30;2.03;;;0.77;;
7158;SDS011;63175;52.374;13.132;2023-04-01T01:35:20;0.93;;;0.90;;
7158;SDS011;63175;52.374;13.132;2023-04-01T01:37:50;1.20;;;0.77;;
7158;SDS011;63175;52.374;13.132;2023-04-01T01:40:21;1.73;;;0.97;;
7158;SDS011;63175;52.374;13.132;2023-04-01T01:42:51;2.27;;;0.93;;
7158;SDS011;63175;52.374;13.132;2023-04-01T01:45:23;1.00;;;1.00;;
7158;SDS011;63175;52.374;13.132;2023-04-01T01:47:52;1.10;;;0.70;;
7158;SDS011;63175;52.374;13.132;2023-04-01T01:50:21;0.60;;;0.60;;
7158;SDS011;63175;52.374;13.132;2023-04-01T01:52:48;1.27;;;0.77;;
7158;SDS011;63175;52.374;13.132;2023-04-01T01:55:23;0.70;;;0.67;;
7158;SDS011;63175;52.374;13.132;2023-04-01T01:57:55;0.63;;;0.63;;
7158;SDS011;63175;52.374;13.132;2023-04-01T02:00:24;1.13;;;1.03;;
7158;SDS011;63175;52.374;13.132;2023-04-01T02:02:52;0.90;;;0.87;;
7158;SDS011;63175;52.374;13.132;2023-04-01T02:05:22;0.70;;;0.70;;
7158;SDS011;63175;52.374;13.132;2023-04-01T02:07:52;1.00;;;0.70;;
7158;SDS011;63175;52.374;13.132;2023-04-01T02:10:25;1.00;;;1.00;;
7158;SDS011;63175;52.374;13.132;2023-04-01T02:12:56;0.90;;;0.73;;
7158;SDS011;63175;52.374;13.132;2023-04-01T02:15:26;1.13;;;0.90;;
7158;SDS011;63175;52.374;13.132;2023-04-01T02:17:55;1.13;;;0.73;;
7158;SDS011;63175;52.374;13.132;2023-04-01T02:20:24;0.50;;;0.50;;
7158;SDS011;63175;52.374;13.132;2023-04-01T02:22:54;0.53;;;0.53;;
7158;SDS011;63175;52.374;13.132;2023-04-01T02:25:23;0.60;;;0.60;;
7158;SDS011;63175;52.374;13.132;2023-04-01T02:27:53;1.03;;;0.50;;
7158;SDS011;63175;52.374;13.132;2023-04-01T02:30:22;0.40;;;0.40;;
7158;SDS011;63175;52.374;13.132;2023-04-01T02:32:50;1.13;;;0.60;;
7158;SDS011;63175;52.374;13.132;2023-04-01T02:35:17;0.90;;;0.80;;
7158;SDS011;63175;52.374;13.132;2023-04-01T02:37:46;1.00;;;0.63;;
7158;SDS011;63175;52.374;13.132;2023-04-01T02:40:15;0.70;;;0.70;;
7158;SDS011;63175;52.374;13.132;2023-04-01T02:42:43;1.17;;;0.80;;
7158;SDS011;63175;52.374;13.132;2023-04-01T02:45:11;1.63;;;0.83;;
7158;SDS011;63175;52.374;13.132;2023-04-01T02:47:39;2.40;;;1.10;;
7158;SDS011;63175;52.374;13.132;2023-04-01T02:50:07;2.80;;;1.00;;
7158;SDS011;63175;52.374;13.132;2023-04-01T02:52:35;1.20;;;0.70;;
7158;SDS011;63175;52.374;13.132;2023-04-01T02:55:03;2.10;;;0.80;;
7158;SDS011;63175;52.374;13.132;2023-04-01T02:57:32;0.90;;;0.90;;
7158;SDS011;63175;52.374;13.132;2023-04-01T02:59:59;1.60;;;1.10;;
7158;SDS011;63175;52.374;13.132;2023-04-01T03:02:26;1.77;;;1.20;;
7158;SDS011;63175;52.374;13.132;2023-04-01T03:04:53;4.20;;;1.10;;
7158;SDS011;63175;52.374;13.132;2023-04-01T03:07:20;1.13;;;1.00;;
7158;SDS011;63175;52.374;13.132;2023-04-01T03:09:47;2.47;;;1.03;;
7158;SDS011;63175;52.374;13.132;2023-04-01T03:12:15;1.30;;;0.83;;
7158;SDS011;63175;52.374;13.132;2023-04-01T03:14:42;1.27;;;1.07;;
7158;SDS011;63175;52.374;13.132;2023-04-01T03:17:09;3.13;;;0.90;;
7158;SDS011;63175;52.374;13.132;2023-04-01T03:19:35;2.23;;;1.00;;
7158;SDS011;63175;52.374;13.132;2023-04-01T03:22:02;2.70;;;0.90;;
7158;SDS011;63175;52.374;13.132;2023-04-01T03:24:29;1.03;;;0.60;;
7158;SDS011;63175;52.374;13.132;2023-04-01T03:26:56;0.73;;;0.60;;
7158;SDS011;63175;52.374;13.132;2023-04-01T03:29:24;1.60;;;1.00;;
7158;SDS011;63175;52.374;13.132;2023-04-01T03:31:51;0.70;;;0.70;;
7158;SDS011;63175;52.374;13.132;2023-04-01T03:34:17;0.70;;;0.70;;
7158;SDS011;63175;52.374;13.132;2023-04-01T03:36:44;1.20;;;0.80;;
7158;SDS011;63175;52.374;13.132;2023-04-01T03:39:11;2.93;;;0.97;;
7158;SDS011;63175;52.374;13.132;2023-04-01T03:41:38;2.77;;;0.90;;
7158;SDS011;63175;52.374;13.132;2023-04-01T03:44:05;1.33;;;0.93;;
7158;SDS011;63175;52.374;13.132;2023-04-01T03:46:33;1.20;;;0.90;;
7158;SDS011;63175;52.374;13.132;2023-04-01T03:49:00;2.40;;;1.20;;
7158;SDS011;63175;52.374;13.132;2023-04-01T03:51:28;2.10;;;0.80;;
7158;SDS011;63175;52.374;13.132;2023-04-01T03:53:55;0.70;;;0.70;;
7158;SDS011;63175;52.374;13.132;2023-04-01T03:56:21;2.03;;;0.80;;
7158;SDS011;63175;52.374;13.132;2023-04-01T03:58:48;0.90;;;0.77;;
7158;SDS011;63175;52.374;13.132;2023-04-01T04:01:16;1.70;;;0.80;;
7158;SDS011;63175;52.374;13.132;2023-04-01T04:03:47;3.10;;;0.93;;
7158;SDS011;63175;52.374;13.132;2023-04-01T04:06:15;2.50;;;1.00;;
7158;SDS011;63175;52.374;13.132;2023-04-01T04:08:43;0.80;;;0.77;;
7158;SDS011;63175;52.374;13.132;2023-04-01T04:11:10;1.13;;;0.90;;
7158;SDS011;63175;52.374;13.132;2023-04-01T04:13:37;0.60;;;0.60;;
7158;SDS011;63175;52.374;13.132;2023-04-01T04:16:04;1.40;;;1.00;;
7158;SDS011;63175;52.374;13.132;2023-04-01T04:18:32;0.80;;;0.80;;
7158;SDS011;63175;52.374;13.132;2023-04-01T04:21:00;0.80;;;0.80;;
7158;SDS011;63175;52.374;13.132;2023-04-01T04:23:27;0.70;;;0.70;;
7158;SDS011;63175;52.374;13.132;2023-04-01T04:25:55;0.73;;;0.73;;
7158;SDS011;63175;52.374;13.132;2023-04-01T04:28:23;2.33;;;1.03;;
7158;SDS011;63175;52.374;13.132;2023-04-01T04:30:50;1.93;;;0.73;;
7158;SDS011;63175;52.374;13.132;2023-04-01T04:33:17;0.87;;;0.87;;
7158;SDS011;63175;52.374;13.132;2023-04-01T04:35:44;2.20;;;0.97;;
7158;SDS011;63175;52.374;13.132;2023-04-01T04:38:13;0.83;;;0.83;;
7158;SDS011;63175;52.374;13.132;2023-04-01T04:40:40;1.00;;;0.90;;
7158;SDS011;63175;52.374;13.132;2023-04-01T04:43:09;0.70;;;0.70;;
7158;SDS011;63175;52.374;13.132;2023-04-01T04:45:37;3.50;;;0.93;;
7158;SDS011;63175;52.374;13.132;2023-04-01T04:48:04;1.90;;;0.90;;
7158;SDS011;63175;52.374;13.132;2023-04-01T04:50:31;2.87;;;1.00;;
7158;SDS011;63175;52.374;13.132;2023-04-01T04:52:57;3.93;;;1.00;;
7158;SDS011;63175;52.374;13.132;2023-04-01T04:55:26;3.57;;;1.40;;
7158;SDS011;63175;52.374;13.132;2023-04-01T04:57:53;2.27;;;1.07;;
7158;SDS011;63175;52.374;13.132;2023-04-01T05:00:20;1.33;;;0.70;;
7158;SDS011;63175;52.374;13.132;2023-04-01T05:02:47;2.50;;;1.10;;
7158;SDS011;63175;52.374;13.132;2023-04-01T05:05:14;1.03;;;1.00;;
7158;SDS011;63175;52.374;13.132;2023-04-01T05:07:40;1.47;;;0.90;;
7158;SDS011;63175;52.374;13.132;2023-04-01T05:10:08;3.00;;;0.90;;
7158;SDS011;63175;52.374;13.132;2023-04-01T05:12:36;4.17;;;1.50;;
7158;SDS011;63175;52.374;13.132;2023-04-01T05:15:04;1.57;;;1.23;;
7158;SDS011;63175;52.374;13.132;2023-04-01T05:17:32;0.93;;;0.93;;
7158;SDS011;63175;52.374;13.132;2023-04-01T05:19:58;1.23;;;0.90;;
7158;SDS011;63175;52.374;13.132;2023-04-01T05:22:25;5.00;;;1.60;;
7158;SDS011;63175;52.374;13.132;2023-04-01T05:24:52;3.30;;;1.70;;
7158;SDS011;63175;52.374;13.132;2023-04-01T05:27:19;3.90;;;1.53;;
7158;SDS011;63175;52.374;13.132;2023-04-01T05:29:47;5.73;;;1.93;;
7158;SDS011;63175;52.374;13.132;2023-04-01T05:32:14;5.90;;;1.80;;
7158;SDS011;63175;52.374;13.132;2023-04-01T05:34:41;1.33;;;1.10;;
7158;SDS011;63175;52.374;13.132;2023-04-01T05:37:08;2.30;;;1.20;;
7158;SDS011;63175;52.374;13.132;2023-04-01T05:39:36;5.53;;;1.60;;
7158;SDS011;63175;52.374;13.132;2023-04-01T05:42:04;2.93;;;1.33;;
7158;SDS011;63175;52.374;13.132;2023-04-01T05:44:32;2.43;;;0.90;;
7158;SDS011;63175;52.374;13.132;2023-04-01T05:47:00;1.30;;;1.20;;
7158;SDS011;63175;52.374;13.132;2023-04-01T05:49:27;1.90;;;1.33;;
7158;SDS011;63175;52.374;13.132;2023-04-01T05:51:54;2.87;;;1.27;;
7158;SDS011;63175;52.374;13.132;2023-04-01T05:54:21;1.03;;;0.93;;
7158;SDS011;63175;52.374;13.132;2023-04-01T05:56:48;2.40;;;1.00;;
7158;SDS011;63175;52.374;13.132;2023-04-01T05:59:15;1.07;;;0.97;;
7158;SDS011;63175;52.374;13.132;2023-04-01T06:01:42;1.00;;;0.80;;
7158;SDS011;63175;52.374;13.132;2023-04-01T06:04:11;2.00;;;1.20;;
7158;SDS011;63175;52.374;13.132;2023-04-01T06:06:41;0.77;;;0.77;;
7158;SDS011;63175;52.374;13.132;2023-04-01T06:09:11;1.20;;;0.63;;
7158;SDS011;63175;52.374;13.132;2023-04-01T06:11:43;1.40;;;1.30;;
7158;SDS011;63175;52.374;13.132;2023-04-01T06:14:22;1.70;;;0.80;;
7158;SDS011;63175;52.374;13.132;2023-04-01T06:17:01;2.80;;;1.10;;
7158;SDS011;63175;52.374;13.132;2023-04-01T06:19:44;4.57;;;1.27;;
7158;SDS011;63175;52.374;13.132;2023-04-01T06:28:29;0.90;;;0.90;;
7158;SDS011;63175;52.374;13.132;2023-04-01T06:31:22;2.93;;;1.40;;
7158;SDS011;63175;52.374;13.132;2023-04-01T06:34:14;1.60;;;1.00;;
7158;SDS011;63175;52.374;13.132;2023-04-01T06:36:59;1.13;;;0.93;;
7158;SDS011;63175;52.374;13.132;2023-04-01T06:42:40;2.80;;;1.67;;
7158;SDS011;63175;52.374;13.132;2023-04-01T06:45:20;3.20;;;1.43;;
7158;SDS011;63175;52.374;13.132;2023-04-01T06:48:02;1.03;;;0.93;;
7158;SDS011;63175;52.374;13.132;2023-04-01T06:50:48;2.03;;;1.00;;
7158;SDS011;63175;52.374;13.132;2023-04-01T06:53:28;6.73;;;1.00;;
7158;SDS011;63175;52.374;13.132;2023-04-01T06:56:02;2.33;;;1.30;;
7158;SDS011;63175;52.374;13.132;2023-04-01T06:58:34;2.60;;;1.17;;
7158;SDS011;63175;52.374;13.132;2023-04-01T07:01:06;3.20;;;1.27;;
7158;SDS011;63175;52.374;13.132;2023-04-01T07:03:36;0.77;;;0.77;;
7158;SDS011;63175;52.374;13.132;2023-04-01T07:06:08;3.17;;;1.27;;
7158;SDS011;63175;52.374;13.132;2023-04-01T07:08:40;2.20;;;1.30;;
7158;SDS011;63175;52.374;13.132;2023-04-01T07:11:10;2.23;;;1.27;;
7158;SDS011;63175;52.374;13.132;2023-04-01T07:13:43;1.77;;;1.30;;
7158;SDS011;63175;52.374;13.132;2023-04-01T07:16:15;1.47;;;1.20;;
7158;SDS011;63175;52.374;13.132;2023-04-01T07:18:47;2.93;;;1.30;;
7158;SDS011;63175;52.374;13.132;2023-04-01T07:21:22;1.70;;;1.00;;
7158;SDS011;63175;52.374;13.132;2023-04-01T07:23:54;2.90;;;1.60;;
7158;SDS011;63175;52.374;13.132;2023-04-01T07:26:26;2.20;;;0.80;;
7158;SDS011;63175;52.374;13.132;2023-04-01T07:28:53;2.40;;;0.80;;
7158;SDS011;63175;52.374;13.132;2023-04-01T07:31:25;0.90;;;0.90;;
7158;SDS011;63175;52.374;13.132;2023-04-01T07:34:02;1.20;;;1.10;;
7158;SDS011;63175;52.374;13.132;2023-04-01T07:36:37;2.67;;;1.03;;
7158;SDS011;63175;52.374;13.132;2023-04-01T07:39:12;3.13;;;1.47;;
7158;SDS011;63175;52.374;13.132;2023-04-01T07:41:51;2.23;;;1.27;;
7158;SDS011;63175;52.374;13.132;2023-04-01T07:44:28;1.57;;;1.20;;
7158;SDS011;63175;52.374;13.132;2023-04-01T07:47:05;2.13;;;1.50;;
7158;SDS011;63175;52.374;13.132;2023-04-01T07:49:45;2.67;;;1.00;;
7158;SDS011;63175;52.374;13.132;2023-04-01T07:52:21;2.13;;;1.00;;
7158;SDS011;63175;52.374;13.132;2023-04-01T07:54:53;1.90;;;1.07;;
7158;SDS011;63175;52.374;13.132;2023-04-01T07:57:27;2.13;;;1.03;;
7158;SDS011;63175;52.374;13.132;2023-04-01T08:00:02;1.33;;;1.00;;
7158;SDS011;63175;52.374;13.132;2023-04-01T08:02:40;2.03;;;1.40;;
7158;SDS011;63175;52.374;13.132;2023-04-01T08:05:19;4.23;;;1.83;;
7158;SDS011;63175;52.374;13.132;2023-04-01T08:07:52;1.80;;;0.97;;
7158;SDS011;63175;52.374;13.132;2023-04-01T08:10:30;0.87;;;0.70;;
7158;SDS011;63175;52.374;13.132;2023-04-01T08:13:03;0.77;;;0.70;;
7158;SDS011;63175;52.374;13.132;2023-04-01T08:15:41;0.60;;;0.60;;
7158;SDS011;63175;52.374;13.132;2023-04-01T08:18:16;2.07;;;0.90;;
7158;SDS011;63175;52.374;13.132;2023-04-01T08:20:55;1.10;;;0.90;;
7158;SDS011;63175;52.374;13.132;2023-04-01T08:23:26;1.00;;;0.70;;
7158;SDS011;63175;52.374;13.132;2023-04-01T08:25:58;1.90;;;0.90;;
7158;SDS011;63175;52.374;13.132;2023-04-01T08:35:36;2.30;;;0.80;;
7158;SDS011;63175;52.374;13.132;2023-04-01T08:38:09;1.83;;;1.10;;
7158;SDS011;63175;52.374;13.132;2023-04-01T08:40:49;1.90;;;0.90;;
7158;SDS011;63175;52.374;13.132;2023-04-01T08:43:27;0.90;;;0.90;;
7158;SDS011;63175;52.374;13.132;2023-04-01T08:46:16;1.17;;;1.10;;
7158;SDS011;63175;52.374;13.132;2023-04-01T08:48:54;1.20;;;0.80;;
7158;SDS011;63175;52.374;13.132;2023-04-01T08:51:43;1.67;;;1.10;;
7158;SDS011;63175;52.374;13.132;2023-04-01T08:54:25;1.10;;;0.70;;
7158;SDS011;63175;52.374;13.132;2023-04-01T08:57:04;1.43;;;0.57;;
7158;SDS011;63175;52.374;13.132;2023-04-01T08:59:45;0.80;;;0.80;;
7158;SDS011;63175;52.374;13.132;2023-04-01T09:08:27;0.93;;;0.50;;
7158;SDS011;63175;52.374;13.132;2023-04-01T09:11:08;1.00;;;0.90;;
7158;SDS011;63175;52.374;13.132;2023-04-01T09:13:49;1.60;;;1.00;;
7158;SDS011;63175;52.374;13.132;2023-04-01T09:16:40;1.70;;;0.87;;
7158;SDS011;63175;52.374;13.132;2023-04-01T09:19:24;0.80;;;0.67;;
7158;SDS011;63175;52.374;13.132;2023-04-01T09:22:03;1.50;;;1.00;;
7158;SDS011;63175;52.374;13.132;2023-04-01T09:24:43;1.00;;;0.70;;
7158;SDS011;63175;52.374;13.132;2023-04-01T09:27:26;1.53;;;1.20;;
7158;SDS011;63175;52.374;13.132;2023-04-01T09:30:19;1.33;;;0.83;;
7158;SDS011;63175;52.374;13.132;2023-04-01T09:33:21;0.70;;;0.60;;
7158;SDS011;63175;52.374;13.132;2023-04-01T09:36:12;3.80;;;0.90;;
7158;SDS011;63175;52.374;13.132;2023-04-01T09:38:54;1.30;;;0.80;;
7158;SDS011;63175;52.374;13.132;2023-04-01T09:41:27;2.80;;;1.57;;
7158;SDS011;63175;52.374;13.132;2023-04-01T09:44:00;0.60;;;0.60;;
7158;SDS011;63175;52.374;13.132;2023-04-01T09:46:36;3.43;;;1.20;;
7158;SDS011;63175;52.374;13.132;2023-04-01T09:49:29;1.30;;;0.60;;
7158;SDS011;63175;52.374;13.132;2023-04-01T09:52:20;1.23;;;1.00;;
7158;SDS011;63175;52.374;13.132;2023-04-01T09:55:00;1.20;;;1.20;;
7158;SDS011;63175;52.374;13.132;2023-04-01T10:01:09;1.23;;;1.13;;
7158;SDS011;63175;52.374;13.132;2023-04-01T10:07:34;2.27;;;1.03;;
7158;SDS011;63175;52.374;13.132;2023-04-01T10:16:43;1.27;;;1.10;;
7158;SDS011;63175;52.374;13.132;2023-04-01T10:19:40;1.00;;;1.00;;
7158;SDS011;63175;52.374;13.132;2023-04-01T10:22:48;1.13;;;0.97;;
7158;SDS011;63175;52.374;13.132;2023-04-01T10:25:45;1.50;;;1.30;;
7158;SDS011;63175;52.374;13.132;2023-04-01T10:32:03;1.20;;;1.10;;
7158;SDS011;63175;52.374;13.132;2023-04-01T10:34:45;1.50;;;1.40;;
7158;SDS011;63175;52.374;13.132;2023-04-01T10:37:50;2.90;;;2.20;;
7158;SDS011;63175;52.374;13.132;2023-04-01T10:40:57;2.00;;;1.90;;
7158;SDS011;63175;52.374;13.132;2023-04-01T10:56:11;2.13;;;2.03;;
7158;SDS011;63175;52.374;13.132;2023-04-01T11:08:25;2.93;;;2.73;;
7158;SDS011;63175;52.374;13.132;2023-04-01T11:11:36;2.43;;;2.33;;
7158;SDS011;63175;52.374;13.132;2023-04-01T11:14:42;2.17;;;2.07;;
7158;SDS011;63175;52.374;13.132;2023-04-01T11:20:42;2.50;;;2.40;;
7158;SDS011;63175;52.374;13.132;2023-04-01T11:26:43;3.10;;;2.90;;
7158;SDS011;63175;52.374;13.132;2023-04-01T11:29:22;2.73;;;2.63;;
7158;SDS011;63175;52.374;13.132;2023-04-01T11:32:02;2.53;;;2.43;;
7158;SDS011;63175;52.374;13.132;2023-04-01T11:34:43;3.10;;;2.90;;
7158;SDS011;63175;52.374;13.132;2023-04-01T11:37:24;2.80;;;2.60;;
7158;SDS011;63175;52.374;13.132;2023-04-01T11:40:02;2.57;;;2.47;;
7158;SDS011;63175;52.374;13.132;2023-04-01T11:42:43;3.10;;;3.00;;
7158;SDS011;63175;52.374;13.132;2023-04-01T11:45:19;2.97;;;2.87;;
7158;SDS011;63175;52.374;13.132;2023-04-01T11:48:07;3.30;;;2.90;;
7158;SDS011;63175;52.374;13.132;2023-04-01T11:50:46;2.73;;;2.63;;
7158;SDS011;63175;52.374;13.132;2023-04-01T11:53:28;3.37;;;3.17;;
7158;SDS011;63175;52.374;13.132;2023-04-01T11:56:07;3.23;;;3.13;;
7158;SDS011;63175;52.374;13.132;2023-04-01T11:58:56;7.70;;;3.37;;
7158;SDS011;63175;52.374;13.132;2023-04-01T12:01:44;3.13;;;3.03;;
7158;SDS011;63175;52.374;13.132;2023-04-01T12:04:35;3.10;;;2.97;;
7158;SDS011;63175;52.374;13.132;2023-04-01T12:07:23;2.80;;;2.70;;
7158;SDS011;63175;52.374;13.132;2023-04-01T12:10:13;3.60;;;3.40;;
7158;SDS011;63175;52.374;13.132;2023-04-01T12:12:46;2.87;;;2.77;;
7158;SDS011;63175;52.374;13.132;2023-04-01T12:15:28;2.63;;;2.53;;
7158;SDS011;63175;52.374;13.132;2023-04-01T12:18:04;2.43;;;2.33;;
7158;SDS011;63175;52.374;13.132;2023-04-01T12:20:43;2.70;;;2.40;;
7158;SDS011;63175;52.374;13.132;2023-04-01T12:23:22;2.43;;;2.33;;
7158;SDS011;63175;52.374;13.132;2023-04-01T12:26:15;2.00;;;1.90;;
7158;SDS011;63175;52.374;13.132;2023-04-01T12:29:06;2.10;;;2.00;;
7158;SDS011;63175;52.374;13.132;2023-04-01T12:31:45;2.47;;;2.27;;
7158;SDS011;63175;52.374;13.132;2023-04-01T12:34:38;2.00;;;1.90;;
7158;SDS011;63175;52.374;13.132;2023-04-01T12:37:16;2.40;;;2.30;;
7158;SDS011;63175;52.374;13.132;2023-04-01T12:39:53;1.97;;;1.87;;
7158;SDS011;63175;52.374;13.132;2023-04-01T12:42:35;1.97;;;1.87;;
7158;SDS011;63175;52.374;13.132;2023-04-01T12:45:35;2.07;;;1.97;;
7158;SDS011;63175;52.374;13.132;2023-04-01T12:48:24;1.70;;;1.60;;
7158;SDS011;63175;52.374;13.132;2023-04-01T12:51:19;1.40;;;1.40;;
7158;SDS011;63175;52.374;13.132;2023-04-01T12:54:10;1.23;;;1.23;;
7158;SDS011;63175;52.374;13.132;2023-04-01T12:56:57;1.40;;;1.40;;
7158;SDS011;63175;52.374;13.132;2023-04-01T12:59:39;1.60;;;1.27;;
7158;SDS011;63175;52.374;13.132;2023-04-01T13:02:21;1.57;;;1.50;;
7158;SDS011;63175;52.374;13.132;2023-04-01T13:05:06;1.20;;;1.20;;
7158;SDS011;63175;52.374;13.132;2023-04-01T13:11:00;1.60;;;1.50;;
7158;SDS011;63175;52.374;13.132;2023-04-01T13:13:44;1.73;;;1.63;;
7158;SDS011;63175;52.374;13.132;2023-04-01T13:16:32;2.13;;;2.00;;
7158;SDS011;63175;52.374;13.132;2023-04-01T13:19:04;1.70;;;1.60;;
7158;SDS011;63175;52.374;13.132;2023-04-01T13:21:41;1.43;;;1.33;;
7158;SDS011;63175;52.374;13.132;2023-04-01T13:24:21;1.70;;;1.60;;
7158;SDS011;63175;52.374;13.132;2023-04-01T13:26:58;1.80;;;1.77;;
7158;SDS011;63175;52.374;13.132;2023-04-01T13:29:29;1.70;;;1.60;;
7158;SDS011;63175;52.374;13.132;2023-04-01T13:34:53;2.27;;;2.17;;
7158;SDS011;63175;52.374;13.132;2023-04-01T13:37:40;2.63;;;2.53;;
7158;SDS011;63175;52.374;13.132;2023-04-01T13:40:23;2.60;;;2.40;;
7158;SDS011;63175;52.374;13.132;2023-04-01T13:42:59;2.67;;;2.47;;
7158;SDS011;63175;52.374;13.132;2023-04-01T13:45:32;2.17;;;2.07;;
7158;SDS011;63175;52.374;13.132;2023-04-01T13:48:14;2.60;;;2.50;;
7158;SDS011;63175;52.374;13.132;2023-04-01T13:51:21;2.07;;;1.97;;
7158;SDS011;63175;52.374;13.132;2023-04-01T13:57:16;2.10;;;2.00;;
7158;SDS011;63175;52.374;13.132;2023-04-01T13:59:55;2.30;;;2.20;;
7158;SDS011;63175;52.374;13.132;2023-04-01T14:02:35;2.73;;;2.63;;
7158;SDS011;63175;52.374;13.132;2023-04-01T14:05:21;4.10;;;3.80;;
7158;SDS011;63175;52.374;13.132;2023-04-01T14:08:20;4.23;;;3.93;;
7158;SDS011;63175;52.374;13.132;2023-04-01T14:10:58;4.83;;;4.43;;
7158;SDS011;63175;52.374;13.132;2023-04-01T14:13:38;5.17;;;4.80;;
7158;SDS011;63175;52.374;13.132;2023-04-01T14:16:24;5.27;;;4.87;;
7158;SDS011;63175;52.374;13.132;2023-04-01T14:19:08;5.10;;;4.80;;
7158;SDS011;63175;52.374;13.132;2023-04-01T14:21:46;4.83;;;4.53;;
7158;SDS011;63175;52.374;13.132;2023-04-01T14:24:23;4.60;;;4.30;;
7158;SDS011;63175;52.374;13.132;2023-04-01T14:27:23;4.80;;;4.50;;
7158;SDS011;63175;52.374;13.132;2023-04-01T14:30:23;4.43;;;4.17;;
7158;SDS011;63175;52.374;13.132;2023-04-01T14:33:04;5.10;;;4.70;;
7158;SDS011;63175;52.374;13.132;2023-04-01T14:35:41;5.60;;;5.13;;
7158;SDS011;63175;52.374;13.132;2023-04-01T14:38:21;4.73;;;4.43;;
7158;SDS011;63175;52.374;13.132;2023-04-01T14:40:58;4.93;;;4.63;;
7158;SDS011;63175;52.374;13.132;2023-04-01T14:43:49;5.43;;;5.10;;
7158;SDS011;63175;52.374;13.132;2023-04-01T14:49:53;5.87;;;5.47;;
7158;SDS011;63175;52.374;13.132;2023-04-01T14:52:31;5.50;;;5.10;;
7158;SDS011;63175;52.374;13.132;2023-04-01T14:55:01;4.57;;;4.27;;
7158;SDS011;63175;52.374;13.132;2023-04-01T14:57:57;4.83;;;4.53;;
7158;SDS011;63175;52.374;13.132;2023-04-01T15:00:26;5.00;;;4.70;;
7158;SDS011;63175;52.374;13.132;2023-04-01T15:03:06;5.00;;;4.70;;
7158;SDS011;63175;52.374;13.132;2023-04-01T15:05:43;5.43;;;5.03;;
7158;SDS011;63175;52.374;13.132;2023-04-01T15:08:16;5.13;;;4.53;;
7158;SDS011;63175;52.374;13.132;2023-04-01T15:10:49;4.73;;;4.43;;
7158;SDS011;63175;52.374;13.132;2023-04-01T15:13:43;4.30;;;4.10;;
7158;SDS011;63175;52.374;13.132;2023-04-01T15:16:27;4.60;;;4.30;;
7158;SDS011;63175;52.374;13.132;2023-04-01T15:19:01;3.73;;;3.50;;
7158;SDS011;63175;52.374;13.132;2023-04-01T15:21:42;4.40;;;4.20;;
7158;SDS011;63175;52.374;13.132;2023-04-01T15:24:19;4.67;;;4.37;;
7158;SDS011;63175;52.374;13.132;2023-04-01T15:27:06;4.40;;;4.10;;
7158;SDS011;63175;52.374;13.132;2023-04-01T15:32:42;4.27;;;3.97;;
7158;SDS011;63175;52.374;13.132;2023-04-01T15:35:19;4.00;;;3.80;;
7158;SDS011;63175;52.374;13.132;2023-04-01T15:37:58;4.00;;;3.80;;
7158;SDS011;63175;52.374;13.132;2023-04-01T15:40:33;4.87;;;4.57;;
7158;SDS011;63175;52.374;13.132;2023-04-01T15:43:15;4.27;;;4.07;;
7158;SDS011;63175;52.374;13.132;2023-04-01T15:45:51;4.10;;;3.90;;
7158;SDS011;63175;52.374;13.132;2023-04-01T15:48:39;3.83;;;3.63;;
7158;SDS011;63175;52.374;13.132;2023-04-01T15:51:17;4.47;;;4.10;;
7158;SDS011;63175;52.374;13.132;2023-04-01T15:54:06;4.30;;;4.00;;
7158;SDS011;63175;52.374;13.132;2023-04-01T15:57:04;4.27;;;4.07;;
7158;SDS011;63175;52.374;13.132;2023-04-01T15:59:53;4.10;;;3.90;;
7158;SDS011;63175;52.374;13.132;2023-04-01T16:02:39;4.30;;;4.07;;
7158;SDS011;63175;52.374;13.132;2023-04-01T16:05:22;3.90;;;3.70;;
7158;SDS011;63175;52.374;13.132;2023-04-01T16:11:10;3.87;;;3.67;;
7158;SDS011;63175;52.374;13.132;2023-04-01T16:13:53;4.37;;;4.07;;
7158;SDS011;63175;52.374;13.132;2023-04-01T16:16:28;4.83;;;4.53;;
7158;SDS011;63175;52.374;13.132;2023-04-01T16:21:58;4.33;;;4.10;;
7158;SDS011;63175;52.374;13.132;2023-04-01T16:24:30;3.60;;;3.40;;
7158;SDS011;63175;52.374;13.132;2023-04-01T16:27:02;5.23;;;4.83;;
7158;SDS011;63175;52.374;13.132;2023-04-01T16:29:38;5.00;;;4.67;;
7158;SDS011;63175;52.374;13.132;2023-04-01T16:32:18;4.80;;;4.50;;
7158;SDS011;63175;52.374;13.132;2023-04-01T16:34:56;3.70;;;3.50;;
7158;SDS011;63175;52.374;13.132;2023-04-01T16:37:34;3.77;;;3.47;;
7158;SDS011;63175;52.374;13.132;2023-04-01T16:40:11;3.60;;;3.40;;
7158;SDS011;63175;52.374;13.132;2023-04-01T16:42:50;3.73;;;3.43;;
7158;SDS011;63175;52.374;13.132;2023-04-01T16:45:26;3.00;;;2.90;;
7158;SDS011;63175;52.374;13.132;2023-04-01T16:48:00;3.60;;;3.30;;
7158;SDS011;63175;52.374;13.132;2023-04-01T16:50:39;3.10;;;2.97;;
7158;SDS011;63175;52.374;13.132;2023-04-01T16:53:16;3.10;;;2.93;;
7158;SDS011;63175;52.374;13.132;2023-04-01T16:55:47;3.60;;;3.40;;
7158;SDS011;63175;52.374;13.132;2023-04-01T16:58:18;4.33;;;4.03;;
7158;SDS011;63175;52.374;13.132;2023-04-01T17:00:50;3.90;;;3.60;;
7158;SDS011;63175;52.374;13.132;2023-04-01T17:03:22;4.00;;;3.80;;
7158;SDS011;63175;52.374;13.132;2023-04-01T17:05:58;4.00;;;3.80;;
7158;SDS011;63175;52.374;13.132;2023-04-01T17:08:36;4.30;;;3.90;;
7158;SDS011;63175;52.374;13.132;2023-04-01T17:11:19;3.87;;;3.60;;
7158;SDS011;63175;52.374;13.132;2023-04-01T17:13:51;3.80;;;3.50;;
7158;SDS011;63175;52.374;13.132;2023-04-01T17:16:43;4.37;;;4.07;;